M I D A S
Marine Information and Data Acquisition System
Tripno 1057 of the Zeeleeuw from 2006-03-28 06:42:22 to 2006-03-28 11:14:48
Back to CruiseResearch ActivitiesStationsMapUnderway DataData graphs

EquipmentUnitsComments
TimeDGPSUTC
LatitudeDGPSDM.mWGS84
LongitudeDGPSDM.mWGS84
SpeedMeteo Stationm/sRelative wind speed
DirectionMeteo StationdegRelative wind direction
TemperatureMeteo Stationdeg CelciusAir temperature
PressureMeteo StationPaAtmospheric pressure
HumidityMeteo Station%Relative humidity
Missing or incorrect values are displayed as -999
Metereological data collected by the RV Zeeleeuw from 2006-03-28 06:41:08 to 2006-03-28 11:26:33
Time Latitude Longitude Speed Direction Temperature Pressure Humidity
2006-03-28 06:42 51°13.612 2°56.035 -999 143 9 100190 81
2006-03-28 06:43 51°13.632 2°55.959 -999 146 9 100190 81
2006-03-28 06:44 51°13.663 2°55.873 -999 40 9 100190 81
2006-03-28 06:45 51°13.698 2°55.79 -999 125 9 100190 81
2006-03-28 06:46 51°13.709 2°55.739 -999 221 9 100190 81
2006-03-28 06:47 51°13.715 2°55.746 -999 171 9.1 100180 81
2006-03-28 06:48 51°13.702 2°55.735 -999 236 9.2 100190 81
2006-03-28 06:49 51°13.743 2°55.704 -999 274 9.2 100190 81
2006-03-28 06:50 51°13.857 2°55.609 -999 315 9.2 100190 80
2006-03-28 06:51 51°13.978 2°55.525 -999 283 9.2 100190 80
2006-03-28 06:52 51°14.079 2°55.454 -999 277 9.2 100190 80
2006-03-28 06:53 51°14.167 2°55.382 -999 318 9.2 100200 80
2006-03-28 06:54 51°14.241 2°55.29 -999 293 9.2 100180 80
2006-03-28 06:55 51°14.305 2°55.183 -999 300 9.2 100200 80
2006-03-28 06:56 51°14.369 2°55.069 -999 301 9.2 100190 79
2006-03-28 06:57 51°14.413 2°54.843 -999 328 9.1 100160 79
2006-03-28 06:58 51°14.41 2°54.545 -999 334 9 100130 80
2006-03-28 06:59 51°14.347 2°54.237 -999 358 8.9 100100 80
2006-03-28 07:00 51°14.233 2°53.935 -999 353 8.8 100130 81
2006-03-28 07:01 51°14.122 2°53.617 -999 2 8.8 100100 81
2006-03-28 07:02 51°14.008 2°53.31 -999 353 8.7 100100 81
2006-03-28 07:03 51°13.889 2°52.995 -999 357 8.7 100100 81
2006-03-28 07:04 51°13.77 2°52.679 -999 359 8.7 100080 82
2006-03-28 07:05 51°13.648 2°52.364 -999 353 8.7 100120 82
2006-03-28 07:06 51°13.531 2°52.045 -999 351 8.7 100090 82
2006-03-28 07:07 51°13.413 2°51.724 -999 357 8.7 100080 82
2006-03-28 07:08 51°13.294 2°51.406 -999 357 8.7 100090 82
2006-03-28 07:09 51°13.176 2°51.081 -999 358 8.7 100100 81
2006-03-28 07:10 51°13.061 2°50.757 -999 358 8.7 100090 81
2006-03-28 07:11 51°12.944 2°50.436 -999 353 8.7 100110 82
2006-03-28 07:12 51°12.828 2°50.114 -999 355 8.7 100120 82
2006-03-28 07:13 51°12.712 2°49.796 -999 1 8.8 100100 81
2006-03-28 07:14 51°12.598 2°49.476 -999 357 8.8 100110 81
2006-03-28 07:15 51°12.484 2°49.155 -999 359 8.7 100120 81
2006-03-28 07:16 51°12.37 2°48.836 -999 354 8.8 100090 81
2006-03-28 07:17 51°12.255 2°48.518 -999 356 8.8 100090 81
2006-03-28 07:18 51°12.142 2°48.197 -999 353 8.8 100090 80
2006-03-28 07:19 51°12.026 2°47.879 -999 2 8.8 100110 80
2006-03-28 07:20 51°11.914 2°47.564 -999 352 8.8 100100 80
2006-03-28 07:21 51°11.8 2°47.238 -999 358 8.9 100100 80
2006-03-28 07:22 51°11.689 2°46.918 -999 357 8.8 100090 80
2006-03-28 07:23 51°11.58 2°46.597 -999 2 8.9 100110 80
2006-03-28 07:24 51°11.471 2°46.276 -999 353 8.8 100120 80
2006-03-28 07:25 51°11.358 2°45.963 -999 353 8.9 100110 80
2006-03-28 07:26 51°11.267 2°45.631 -999 353 8.8 100120 80
2006-03-28 07:27 51°11.174 2°45.301 -999 354 8.9 100110 80
2006-03-28 07:28 51°11.085 2°44.969 -999 352 8.8 100100 80
2006-03-28 07:29 51°10.993 2°44.638 -999 354 8.9 100100 79
2006-03-28 07:30 51°10.904 2°44.304 -999 355 8.9 100100 79
2006-03-28 07:31 51°10.814 2°43.968 -999 357 8.8 100110 79
2006-03-28 07:32 51°10.726 2°43.632 -999 352 8.7 100120 80
2006-03-28 07:33 51°10.635 2°43.303 -999 359 8.8 100090 80
2006-03-28 07:34 51°10.558 2°42.978 -999 349 8.7 100120 80
2006-03-28 07:35 51°10.471 2°42.632 -999 351 8.7 100120 81
2006-03-28 07:36 51°10.395 2°42.291 -999 352 8.7 100120 80
2006-03-28 07:37 51°10.316 2°41.952 -999 352 8.7 100120 81
2006-03-28 07:38 51°10.235 2°41.617 -999 356 8.7 100110 81
2006-03-28 07:39 51°10.158 2°41.277 -999 352 8.7 100120 81
2006-03-28 07:40 51°10.08 2°40.939 -999 351 8.7 100130 81
2006-03-28 07:41 51°10.006 2°40.601 -999 349 8.7 100140 81
2006-03-28 07:42 51°9.929 2°40.264 -999 352 8.7 100130 81
2006-03-28 07:43 51°9.853 2°39.927 -999 352 8.7 100130 81
2006-03-28 07:44 51°9.776 2°39.59 -999 352 8.7 100130 81
2006-03-28 07:45 51°9.701 2°39.258 -999 347 8.7 100120 81
2006-03-28 07:46 51°9.625 2°38.915 -999 349 8.7 100120 80
2006-03-28 07:47 51°9.55 2°38.582 -999 347 8.8 100110 80
2006-03-28 07:48 51°9.473 2°38.25 -999 353 8.8 100110 80
2006-03-28 07:49 51°9.399 2°37.916 -999 348 8.8 100130 79
2006-03-28 07:50 51°9.325 2°37.583 -999 351 8.8 100130 80
2006-03-28 07:51 51°9.251 2°37.246 -999 346 8.7 100140 80
2006-03-28 07:52 51°9.177 2°36.911 -999 352 8.7 100130 80
2006-03-28 07:53 51°9.102 2°36.576 -999 350 8.7 100100 80
2006-03-28 07:54 51°9.03 2°36.233 -999 353 8.7 100130 80
2006-03-28 07:55 51°8.953 2°35.893 -999 349 8.7 100140 80
2006-03-28 07:56 51°8.868 2°35.558 -999 351 8.7 100130 80
2006-03-28 07:57 51°8.782 2°35.226 -999 352 8.8 100110 80
2006-03-28 07:58 51°8.695 2°34.891 -999 350 8.9 100100 79
2006-03-28 07:59 51°8.607 2°34.557 -999 356 8.9 100130 79
2006-03-28 08:00 51°8.517 2°34.223 -999 352 8.8 100150 79
2006-03-28 08:01 51°8.422 2°33.895 -999 355 8.8 100120 79
2006-03-28 08:02 51°8.323 2°33.573 -999 354 8.8 100110 79
2006-03-28 08:03 51°8.214 2°33.263 -999 355 8.8 100070 79
2006-03-28 08:04 51°8.109 2°32.951 -999 352 8.9 100100 79
2006-03-28 08:05 51°8.078 2°32.606 -999 325 8.9 100100 79
2006-03-28 08:06 51°8.18 2°32.34 -999 282 8.9 100130 79
2006-03-28 08:07 51°8.364 2°32.432 -999 241 8.9 100190 79
2006-03-28 08:08 51°8.555 2°32.554 -999 222 8.8 100190 79
2006-03-28 08:09 51°8.725 2°32.731 -999 218 8.8 100200 80
2006-03-28 08:10 51°8.88 2°32.927 -999 207 8.8 100200 80
2006-03-28 08:11 51°9.041 2°33.146 -999 227 8.8 100190 80
2006-03-28 08:12 51°9.2 2°33.365 -999 200 8.7 100200 80
2006-03-28 08:13 51°9.334 2°33.615 -999 161 8.8 100200 81
2006-03-28 08:14 51°9.451 2°33.892 -999 178 8.8 100200 80
2006-03-28 08:15 51°9.563 2°34.167 -999 179 8.8 100200 80
2006-03-28 08:16 51°9.684 2°34.449 -999 166 8.9 100200 81
2006-03-28 08:17 51°9.802 2°34.73 -999 167 8.8 100200 80
2006-03-28 08:18 51°9.917 2°35.019 -999 157 8.7 100210 80
2006-03-28 08:19 51°10.028 2°35.309 -999 172 8.6 100200 80
2006-03-28 08:20 51°10.15 2°35.58 -999 170 8.7 100210 81
2006-03-28 08:21 51°10.275 2°35.85 -999 169 8.7 100210 81
2006-03-28 08:22 51°10.396 2°36.112 -999 179 8.7 100200 81
2006-03-28 08:23 51°10.518 2°36.381 -999 176 8.7 100200 81
2006-03-28 08:24 51°10.643 2°36.64 -999 157 8.7 100200 81
2006-03-28 08:25 51°10.763 2°36.927 -999 199 8.7 100200 81
2006-03-28 08:26 51°10.887 2°37.181 -999 162 8.7 100200 81
2006-03-28 08:27 51°11.017 2°37.446 -999 170 8.7 100190 80
2006-03-28 08:28 51°11.143 2°37.715 -999 153 8.7 100200 80
2006-03-28 08:29 51°11.262 2°37.981 -999 160 8.6 100200 81
2006-03-28 08:30 51°11.39 2°38.256 -999 195 8.6 100200 80
2006-03-28 08:31 51°11.518 2°38.514 -999 180 8.9 100190 81
2006-03-28 08:32 51°11.649 2°38.784 -999 182 9 100190 80
2006-03-28 08:33 51°11.776 2°39.047 -999 165 9.3 100190 78
2006-03-28 08:34 51°11.901 2°39.311 -999 163 9.2 100190 78
2006-03-28 08:35 51°12.024 2°39.574 -999 165 9.1 100190 78
2006-03-28 08:36 51°12.147 2°39.837 -999 175 9 100190 78
2006-03-28 08:37 51°12.271 2°40.098 -999 163 9 100190 77
2006-03-28 08:38 51°12.392 2°40.352 -999 185 9 100190 78
2006-03-28 08:39 51°12.524 2°40.621 -999 167 8.8 100180 78
2006-03-28 08:40 51°12.645 2°40.877 -999 185 8.7 100180 78
2006-03-28 08:41 51°12.78 2°41.145 -999 171 8.8 100190 79
2006-03-28 08:42 51°12.89 2°41.426 -999 144 8.9 100190 79
2006-03-28 08:43 51°12.992 2°41.716 -999 175 8.8 100180 79
2006-03-28 08:44 51°13.107 2°41.999 -999 200 8.8 100190 79
2006-03-28 08:45 51°13.218 2°42.278 -999 189 8.8 100190 80
2006-03-28 08:46 51°13.333 2°42.546 -999 212 8.8 100190 79
2006-03-28 08:47 51°13.454 2°42.792 -999 207 8.8 100190 79
2006-03-28 08:48 51°13.58 2°43.061 -999 202 8.8 100190 79
2006-03-28 08:49 51°13.707 2°43.313 -999 221 8.7 100190 79
2006-03-28 08:50 51°13.832 2°43.57 -999 174 8.7 100190 79
2006-03-28 08:51 51°13.954 2°43.844 -999 152 8.7 100200 79
2006-03-28 08:52 51°14.069 2°44.117 -999 163 8.7 100200 79
2006-03-28 08:53 51°14.191 2°44.388 -999 177 8.6 100200 79
2006-03-28 08:54 51°14.314 2°44.662 -999 175 8.6 100200 79
2006-03-28 08:55 51°14.441 2°44.935 -999 203 8.6 100200 80
2006-03-28 08:56 51°14.567 2°45.198 -999 160 8.6 100200 80
2006-03-28 08:57 51°14.695 2°45.48 -999 167 8.6 100190 79
2006-03-28 08:58 51°14.824 2°45.754 -999 170 8.6 100190 80
2006-03-28 08:59 51°14.943 2°46.043 -999 174 8.7 100190 80
2006-03-28 09:00 51°15.079 2°46.332 -999 225 8.7 100200 80
2006-03-28 09:01 51°15.213 2°46.611 -999 197 8.7 100190 80
2006-03-28 09:02 51°15.343 2°46.903 -999 190 8.8 100190 80
2006-03-28 09:03 51°15.469 2°47.188 -999 169 8.7 100190 79
2006-03-28 09:04 51°15.603 2°47.48 -999 208 8.7 100190 79
2006-03-28 09:05 51°15.743 2°47.746 -999 205 8.7 100180 79
2006-03-28 09:06 51°15.883 2°48.021 -999 208 8.6 100190 79
2006-03-28 09:07 51°16.024 2°48.301 -999 215 8.6 100180 79
2006-03-28 09:08 51°16.164 2°48.576 -999 174 8.6 100180 79
2006-03-28 09:09 51°16.311 2°48.854 -999 203 8.6 100180 79
2006-03-28 09:10 51°16.452 2°49.131 -999 183 8.6 100190 79
2006-03-28 09:11 51°16.591 2°49.407 -999 203 8.6 100180 79
2006-03-28 09:12 51°16.729 2°49.671 -999 167 8.7 100180 79
2006-03-28 09:13 51°16.863 2°49.949 -999 205 8.7 100180 79
2006-03-28 09:14 51°17.01 2°50.193 -999 228 8.7 100180 78
2006-03-28 09:15 51°17.182 2°50.403 -999 248 8.5 100170 78
2006-03-28 09:16 51°17.364 2°50.595 -999 243 8.4 100180 78
2006-03-28 09:17 51°17.541 2°50.797 -999 222 8.3 100190 79
2006-03-28 09:18 51°17.679 2°51.069 -999 166 8.3 100180 80
2006-03-28 09:19 51°17.795 2°51.372 -999 174 8.4 100180 79
2006-03-28 09:20 51°17.913 2°51.675 -999 137 8.4 100170 79
2006-03-28 09:21 51°18.016 2°51.996 -999 136 8.3 100170 80
2006-03-28 09:22 51°18.11 2°52.322 -999 131 8.3 100170 80
2006-03-28 09:23 51°18.212 2°52.636 -999 132 8.3 100170 80
2006-03-28 09:24 51°18.313 2°52.957 -999 147 8.3 100170 80
2006-03-28 09:25 51°18.406 2°53.28 -999 149 8.3 100160 80
2006-03-28 09:26 51°18.495 2°53.608 -999 153 8.3 100170 80
2006-03-28 09:27 51°18.591 2°53.929 -999 137 8.3 100160 80
2006-03-28 09:28 51°18.687 2°54.248 -999 160 8.3 100160 80
2006-03-28 09:29 51°18.783 2°54.572 -999 140 8.3 100160 80
2006-03-28 09:30 51°18.882 2°54.889 -999 155 8.3 100160 80
2006-03-28 09:31 51°18.982 2°55.219 -999 135 8.3 100160 80
2006-03-28 09:32 51°19.062 2°55.557 -999 136 8.2 100150 80
2006-03-28 09:33 51°19.152 2°55.892 -999 145 8.3 100150 80
2006-03-28 09:34 51°19.235 2°56.23 -999 229 8.3 100150 80
2006-03-28 09:35 51°19.322 2°56.567 -999 130 8.3 100150 80
2006-03-28 09:36 51°19.406 2°56.908 -999 143 8.3 100150 80
2006-03-28 09:37 51°19.49 2°57.252 -999 141 8.3 100140 80
2006-03-28 09:38 51°19.581 2°57.59 -999 142 8.3 100150 80
2006-03-28 09:39 51°19.673 2°57.931 -999 138 8.2 100140 80
2006-03-28 09:40 51°19.755 2°58.277 -999 140 8.2 100140 80
2006-03-28 09:41 51°19.842 2°58.62 -999 132 8.2 100140 80
2006-03-28 09:42 51°19.936 2°58.959 -999 121 8.2 100140 80
2006-03-28 09:43 51°20.034 2°59.3 -999 226 8.2 100140 80
2006-03-28 09:44 51°20.123 2°59.651 -999 137 8.2 100140 80
2006-03-28 09:45 51°20.214 3°0.003 -999 134 8.2 100150 80
2006-03-28 09:46 51°20.308 3°0.353 -999 137 8.3 100150 80
2006-03-28 09:47 51°20.406 3°0.698 -999 140 8.3 100150 79
2006-03-28 09:48 51°20.512 3°1.038 -999 133 8.3 100150 79
2006-03-28 09:49 51°20.612 3°1.383 -999 155 8.3 100150 79
2006-03-28 09:50 51°20.709 3°1.738 -999 148 8.4 100150 79
2006-03-28 09:51 51°20.804 3°2.091 -999 226 8.4 100150 79
2006-03-28 09:52 51°20.893 3°2.453 -999 145 8.4 100150 79
2006-03-28 09:53 51°20.987 3°2.809 -999 136 8.4 100150 79
2006-03-28 09:54 51°21.083 3°3.172 -999 142 8.4 100150 79
2006-03-28 09:55 51°21.177 3°3.534 -999 156 8.4 100150 79
2006-03-28 09:56 51°21.275 3°3.89 -999 157 8.4 100150 78
2006-03-28 09:57 51°21.373 3°4.251 -999 150 8.4 100140 78
2006-03-28 09:58 51°21.466 3°4.612 -999 155 8.4 100140 78
2006-03-28 09:59 51°21.552 3°4.982 -999 152 8.4 100140 79
2006-03-28 10:00 51°21.632 3°5.356 -999 157 8.4 100140 79
2006-03-28 10:01 51°21.714 3°5.725 -999 142 8.4 100130 78
2006-03-28 10:02 51°21.796 3°6.1 -999 142 8.4 100130 78
2006-03-28 10:03 51°21.854 3°6.484 -999 121 8.4 100130 78
2006-03-28 10:04 51°21.888 3°6.879 -999 117 8.4 100130 78
2006-03-28 10:05 51°21.841 3°7.253 -999 89 8.3 100120 78
2006-03-28 10:06 51°21.691 3°7.513 -999 42 8.3 100080 78
2006-03-28 10:07 51°21.517 3°7.474 -999 13 8.1 100080 79
2006-03-28 10:08 51°21.357 3°7.34 -999 17 8.1 100090 80
2006-03-28 10:09 51°21.199 3°7.204 -999 15 8.2 100080 80
2006-03-28 10:10 51°21.042 3°7.068 -999 19 8.3 100080 79
2006-03-28 10:11 51°20.887 3°6.933 -999 18 8.3 100090 79
2006-03-28 10:12 51°20.732 3°6.799 -999 18 8.3 100090 78
2006-03-28 10:13 51°20.578 3°6.668 -999 19 8.3 100090 78
2006-03-28 10:14 51°20.425 3°6.539 -999 13 8.4 100080 78
2006-03-28 10:15 51°20.281 3°6.398 -999 18 8.4 100080 77
2006-03-28 10:16 51°20.15 3°6.232 -999 12 8.4 100080 77
2006-03-28 10:17 51°20.034 3°6.048 -999 11 8.4 100090 77
2006-03-28 10:18 51°19.928 3°5.854 -999 11 8.4 100090 77
2006-03-28 10:19 51°19.824 3°5.652 -999 11 8.5 100080 77
2006-03-28 10:20 51°19.718 3°5.452 -999 7 8.4 100080 78
2006-03-28 10:21 51°19.613 3°5.255 -999 7 8.4 100080 78
2006-03-28 10:22 51°19.508 3°5.058 -999 8 8.3 100090 78
2006-03-28 10:23 51°19.406 3°4.847 -999 10 8.3 100060 77
2006-03-28 10:24 51°19.304 3°4.63 -999 8 8.3 100060 78
2006-03-28 10:25 51°19.201 3°4.41 -999 7 8.3 100050 78
2006-03-28 10:26 51°19.101 3°4.196 -999 3 8.4 100050 78
2006-03-28 10:27 51°19.008 3°3.989 -999 8 8.4 100030 78
2006-03-28 10:28 51°18.919 3°3.775 -999 11 8.4 100060 78
2006-03-28 10:29 51°18.83 3°3.55 -999 8 8.4 100070 78
2006-03-28 10:30 51°18.748 3°3.327 -999 3 8.4 100070 78
2006-03-28 10:31 51°18.665 3°3.108 -999 5 8.4 100070 78
2006-03-28 10:32 51°18.585 3°2.888 -999 6 8.4 100060 77
2006-03-28 10:33 51°18.507 3°2.671 -999 6 8.4 100070 77
2006-03-28 10:34 51°18.432 3°2.454 -999 3 8.5 100070 76
2006-03-28 10:35 51°18.359 3°2.238 -999 6 8.6 100050 76
2006-03-28 10:36 51°18.283 3°2.017 -999 7 8.6 100070 76
2006-03-28 10:37 51°18.206 3°1.794 -999 10 8.6 100080 75
2006-03-28 10:38 51°18.131 3°1.57 -999 7 8.6 100080 75
2006-03-28 10:39 51°18.057 3°1.354 -999 1 8.5 100080 76
2006-03-28 10:40 51°17.982 3°1.139 -999 6 8.4 100070 76
2006-03-28 10:41 51°17.903 3°0.921 -999 6 8.4 100080 76
2006-03-28 10:42 51°17.824 3°0.699 -999 3 8.4 100080 76
2006-03-28 10:43 51°17.742 3°0.477 -999 8 8.4 100080 76
2006-03-28 10:44 51°17.657 3°0.253 -999 3 8.4 100080 76
2006-03-28 10:45 51°17.572 3°0.026 -999 7 8.3 100080 76
2006-03-28 10:46 51°17.491 2°59.799 -999 7 8.2 100080 77
2006-03-28 10:47 51°17.41 2°59.575 -999 8 8.2 100070 78
2006-03-28 10:48 51°17.33 2°59.348 -999 3 8.2 100060 78
2006-03-28 10:49 51°17.251 2°59.121 -999 4 8.2 100070 78
2006-03-28 10:50 51°17.172 2°58.893 -999 360 8.3 100060 78
2006-03-28 10:51 51°17.091 2°58.664 -999 4 8.4 100060 78
2006-03-28 10:52 51°17.012 2°58.433 -999 3 8.4 100070 77
2006-03-28 10:53 51°16.93 2°58.199 -999 4 8.4 100060 77
2006-03-28 10:54 51°16.848 2°57.963 -999 4 8.4 100080 77
2006-03-28 10:55 51°16.766 2°57.726 -999 4 8.4 100060 77
2006-03-28 10:56 51°16.686 2°57.486 -999 8 8.4 100070 77
2006-03-28 10:57 51°16.604 2°57.245 -999 7 8.4 100060 77
2006-03-28 10:58 51°16.524 2°57.002 -999 12 8.5 100080 77
2006-03-28 10:59 51°16.446 2°56.76 -999 10 8.4 100090 77
2006-03-28 11:00 51°16.367 2°56.517 -999 9 8.3 100080 77
2006-03-28 11:01 51°16.288 2°56.274 -999 10 8.2 100080 78
2006-03-28 11:02 51°16.211 2°56.034 -999 12 8.3 100070 78
2006-03-28 11:03 51°16.121 2°55.804 -999 20 8.2 100080 78
2006-03-28 11:04 51°15.992 2°55.621 -999 24 8.2 100090 78
2006-03-28 11:05 51°15.854 2°55.454 -999 28 8.2 100090 79
2006-03-28 11:06 51°15.725 2°55.33 -999 43 8.2 100070 79
2006-03-28 11:07 51°15.589 2°55.237 -999 37 8.1 100070 79
2006-03-28 11:08 51°15.421 2°55.149 -999 39 8 100090 80
2006-03-28 11:09 51°15.248 2°55.061 -999 41 8 100070 80
2006-03-28 11:10 51°15.074 2°55.012 -999 40 8 100070 81
2006-03-28 11:11 51°14.908 2°54.948 -999 37 8.1 100080 81
2006-03-28 11:12 51°14.737 2°54.891 -999 47 8.1 100080 80
2006-03-28 11:13 51°14.556 2°54.904 -999 63 8.2 100060 80
2006-03-28 11:14 51°14.395 2°55.058 -999 92 8.2 100090 79
2006-03-28 11:15 51°14.263 2°55.271 -999 89 8.2 100110 80
2006-03-28 11:16 51°14.128 2°55.427 -999 26 8.4 100110 80
2006-03-28 11:17 51°14.007 2°55.508 -999 38 9.4 100090 73
2006-03-28 11:18 51°13.908 2°55.579 -999 43 10.1 100100 68
2006-03-28 11:19 51°13.818 2°55.644 -999 60 10.5 100090 65
2006-03-28 11:20 51°13.761 2°55.701 -999 67 10.8 100090 63
2006-03-28 11:21 51°13.722 2°55.772 -999 165 11 100100 61
2006-03-28 11:22 51°13.679 2°55.86 -999 112 11.2 100100 60
2006-03-28 11:23 51°13.638 2°55.956 -999 122 11.3 100110 60
2006-03-28 11:24 51°13.611 2°56.038 -999 125 11.4 100100 67
2006-03-28 11:25 51°13.601 2°56.085 -999 120 11.4 100100 59
2006-03-28 11:26 51°13.599 2°56.094 -999 115 11.5 100100 59